createdAt,value
2022-08-05T00:03:46.426Z,19.37
2022-08-05T00:08:46.399Z,19.31
2022-08-05T00:13:46.417Z,19.31
2022-08-05T00:18:46.368Z,19.43
2022-08-05T00:23:53.490Z,19.37
2022-08-05T00:28:46.377Z,19.62
2022-08-05T00:34:42.827Z,19.56
2022-08-05T00:38:46.363Z,19.31
2022-08-05T00:43:46.751Z,19.31
2022-08-05T00:48:50.719Z,19.37
2022-08-05T00:54:01.623Z,19.25
2022-08-05T00:58:46.321Z,19.56
2022-08-05T01:03:46.319Z,19.68
2022-08-05T01:08:47.364Z,20.12
2022-08-05T01:13:58.145Z,20.18
2022-08-05T01:18:48.078Z,20.25
2022-08-05T01:23:47.184Z,20.31
2022-08-05T01:28:46.286Z,20.18
2022-08-05T01:33:49.088Z,20.06
2022-08-05T01:38:46.279Z,20.06
2022-08-05T01:43:46.276Z,20.06
2022-08-05T01:48:49.337Z,20.56
2022-08-05T01:53:55.414Z,20.37
2022-08-05T01:58:46.666Z,20.18
2022-08-05T02:03:46.244Z,20.12
2022-08-05T02:08:55.150Z,20.12
2022-08-05T02:13:48.851Z,20.31
2022-08-05T02:18:46.215Z,20.25
2022-08-05T02:23:46.222Z,20.25
2022-08-05T02:28:46.288Z,20.12
2022-08-05T02:33:46.203Z,20.18
2022-08-05T02:38:52.992Z,20.31
2022-08-05T02:44:03.033Z,20.06
2022-08-05T02:48:46.191Z,20.06
2022-08-05T02:53:46.169Z,20.06
2022-08-05T02:58:51.113Z,20
2022-08-05T03:04:02.312Z,20.31
2022-08-05T03:08:46.141Z,19.87
2022-08-05T03:13:51.360Z,19.93
2022-08-05T03:18:46.147Z,20.12
2022-08-05T03:23:46.112Z,20
2022-08-05T03:28:46.125Z,20.06
2022-08-05T03:33:51.346Z,20.18
2022-08-05T03:38:53.325Z,20.12
2022-08-05T03:43:59.643Z,20.43
2022-08-05T03:48:46.727Z,21.06
2022-08-05T03:55:00.843Z,21.37
2022-08-05T03:58:46.122Z,21.43
2022-08-05T04:03:57.027Z,21.62
2022-08-05T04:08:46.065Z,21.75
2022-08-05T04:13:50.714Z,21.75
2022-08-05T04:18:46.045Z,21.81
2022-08-05T04:23:57.527Z,21.75
2022-08-05T04:28:50.908Z,21.87
2022-08-05T04:33:55.093Z,22
2022-08-05T04:38:46.050Z,22.25
2022-08-05T04:43:46.733Z,22.56
2022-08-05T04:48:46.054Z,22.43
2022-08-05T04:53:46.002Z,22.18
2022-08-05T04:58:46.001Z,22.37
2022-08-05T05:03:46.007Z,22.18
2022-08-05T05:08:45.977Z,22.18
2022-08-05T05:13:45.973Z,22.25
2022-08-05T05:19:02.713Z,22.5
2022-08-05T05:24:02.648Z,22.81
2022-08-05T05:28:45.956Z,24.37
2022-08-05T05:33:57.104Z,26.43
2022-08-05T05:38:45.958Z,28.06
2022-08-05T05:43:54.877Z,29.31
2022-08-05T05:48:47.765Z,28.62
2022-08-05T05:53:54.249Z,29.12
2022-08-05T05:58:45.911Z,31.25
2022-08-05T06:03:54.296Z,32.43
2022-08-05T06:08:47.863Z,31.75
2022-08-05T06:13:50.384Z,32.18
2022-08-05T06:18:45.891Z,32.62
2022-08-05T06:23:45.882Z,31.12
2022-08-05T06:28:45.873Z,32.18
2022-08-05T06:34:06.560Z,32.62
2022-08-05T06:38:46.993Z,32.68
2022-08-05T06:43:52.040Z,32.68
2022-08-05T06:48:52.609Z,31.93
2022-08-05T06:53:53.450Z,32.87
2022-08-05T06:58:46.737Z,31.87
2022-08-05T07:03:45.833Z,32.37
2022-08-05T07:08:47.414Z,33.18
2022-08-05T07:13:57.312Z,32.81
2022-08-05T07:18:47.815Z,32.81
2022-08-05T07:23:49.221Z,33.75
2022-08-05T07:28:45.825Z,33.43
2022-08-05T07:33:45.787Z,33.68
2022-08-05T07:38:45.795Z,33.56
2022-08-05T07:43:45.784Z,34.56
2022-08-05T07:49:03.185Z,32.81
2022-08-05T07:58:55.225Z,31.31
2022-08-05T08:18:46.541Z,31.12
2022-08-05T08:38:53.140Z,29.87
2022-08-05T08:45:17.213Z,29.56
2022-08-05T08:49:03.166Z,29
2022-08-05T08:53:45.703Z,28.81
2022-08-05T08:58:47.809Z,29
2022-08-05T09:03:45.777Z,28.81
2022-08-05T09:08:45.678Z,28.62
2022-08-05T09:14:01.364Z,28.68
2022-08-05T09:18:45.672Z,28.68
2022-08-05T09:23:45.677Z,28.5
2022-08-05T09:28:45.659Z,28.43
2022-08-05T09:33:45.648Z,28.87
2022-08-05T09:38:45.645Z,28.5
2022-08-05T09:43:45.654Z,28.37
2022-08-05T09:48:55.092Z,29
2022-08-05T09:53:54.142Z,28.62
2022-08-05T09:58:45.619Z,28.37
2022-08-05T10:03:57.090Z,28.81
2022-08-05T10:08:50.231Z,29.18
2022-08-05T10:13:47.967Z,28.62
2022-08-05T10:18:48.059Z,29.18
2022-08-05T10:23:56.599Z,29
2022-08-05T10:28:46.269Z,29.25
2022-08-05T10:33:45.565Z,28.75
2022-08-05T10:38:45.568Z,28.81
2022-08-05T10:43:45.569Z,29.31
2022-08-05T10:48:53.200Z,28.87
2022-08-05T10:53:45.597Z,29.06
2022-08-05T10:58:48.115Z,29.06
2022-08-05T11:03:45.594Z,29.37
2022-08-05T11:08:45.533Z,29.93
2022-08-05T11:13:54.699Z,29.68
2022-08-05T11:18:46.924Z,29.68
2022-08-05T11:24:03.538Z,29.43
2022-08-05T11:28:45.505Z,29.93
2022-08-05T11:33:46.775Z,30.31
2022-08-05T11:38:51.190Z,30.43
2022-08-05T11:44:01.147Z,30.18
2022-08-05T11:48:45.538Z,30.31
2022-08-05T11:53:45.482Z,30.56
2022-08-05T11:58:47.890Z,30.56
2022-08-05T12:03:55.462Z,30.93
2022-08-05T12:08:50.149Z,30.5
2022-08-05T12:13:48.279Z,31.43
2022-08-05T12:18:48.823Z,31.06
2022-08-05T12:23:45.434Z,31.06
2022-08-05T12:28:46.320Z,30.81
2022-08-05T12:33:45.423Z,30.68
2022-08-05T12:43:45.426Z,30.87
2022-08-05T12:48:45.400Z,30.81
2022-08-05T12:53:47.472Z,30.18
2022-08-05T12:58:52.806Z,31.43
2022-08-05T13:03:45.530Z,30.75
2022-08-05T13:43:54.440Z,30.81
2022-08-05T13:58:52.788Z,30.87
2022-08-05T14:08:45.340Z,31.06
2022-08-05T14:13:48.060Z,31.12
2022-08-05T14:18:45.288Z,31.06
2022-08-05T14:23:45.299Z,31.25
2022-08-05T14:28:52.031Z,30.75
2022-08-05T14:33:57.119Z,30.87
2022-08-05T14:38:45.268Z,30.56
2022-08-05T14:43:59.965Z,30.25
2022-08-05T14:48:45.268Z,30.37
2022-08-05T14:53:45.261Z,30.25
2022-08-05T14:58:47.679Z,30.18
2022-08-05T15:03:45.398Z,29.93
2022-08-05T15:08:58.819Z,30.18
2022-08-05T15:13:46.391Z,30.5
2022-08-05T15:18:47.136Z,30.62
2022-08-05T15:28:45.231Z,31.31
2022-08-05T15:34:04.232Z,31.62
2022-08-05T15:38:46.318Z,31.37
2022-08-05T15:43:45.604Z,31.43
2022-08-05T15:48:52.621Z,31.12
2022-08-05T15:53:50.505Z,30.93
2022-08-05T15:58:45.195Z,31.31
2022-08-05T16:03:45.181Z,32.18
2022-08-05T16:08:45.166Z,31.62
2022-08-05T16:13:45.168Z,31.87
2022-08-05T16:18:51.602Z,32.06
2022-08-05T16:23:54.398Z,31.68
2022-08-05T16:28:45.141Z,31.25
2022-08-05T16:33:45.168Z,31.12
2022-08-05T16:38:45.134Z,31.12
2022-08-05T16:43:45.137Z,31.25
2022-08-05T16:48:45.123Z,30.75
2022-08-05T16:54:03.828Z,30.56
2022-08-05T16:58:45.135Z,30
2022-08-05T17:03:45.140Z,30
2022-08-05T17:08:52.511Z,29.81
2022-08-05T17:13:45.245Z,29.43
2022-08-05T17:18:45.080Z,29.31
2022-08-05T17:24:03.944Z,29.12
2022-08-05T17:28:47.217Z,29
2022-08-05T17:33:48.282Z,28.81
2022-08-05T17:38:45.067Z,28.43
2022-08-05T17:43:46.620Z,28.18
2022-08-05T17:48:45.056Z,27.81
2022-08-05T17:53:45.063Z,27.62
2022-08-05T17:58:45.059Z,27.31
2022-08-05T18:03:48.621Z,27.25
2022-08-05T18:08:46.024Z,27.18
2022-08-05T18:13:45.053Z,26.93
2022-08-05T18:18:47.772Z,26.68
2022-08-05T18:23:45.887Z,26.56
2022-08-05T18:28:46.456Z,26.37
2022-08-05T18:33:45.312Z,26.25
2022-08-05T18:38:44.991Z,26
2022-08-05T18:43:48.503Z,25.81
2022-08-05T18:48:44.977Z,25.62
2022-08-05T18:53:45.809Z,25.5
2022-08-05T18:58:44.961Z,25.37
2022-08-05T19:03:53.666Z,25.25
2022-08-05T19:08:44.944Z,25.18
2022-08-05T19:13:47.820Z,25.06
2022-08-05T19:18:44.932Z,24.93
2022-08-05T19:24:06.368Z,24.93
2022-08-05T19:28:44.920Z,24.81
2022-08-05T19:33:48.107Z,24.75
2022-08-05T19:38:44.920Z,24.68
2022-08-05T19:44:05.239Z,24.62
2022-08-05T19:48:44.892Z,24.5
2022-08-05T19:54:03.948Z,24.5
2022-08-05T19:58:53.681Z,24.43
2022-08-05T20:03:44.875Z,24.37
2022-08-05T20:08:47.325Z,24.37
2022-08-05T20:13:55.186Z,24.25
2022-08-05T20:18:44.946Z,24.18
2022-08-05T20:23:49.376Z,23.81
2022-08-05T20:28:44.862Z,22.18
2022-08-05T20:33:45.061Z,21.18
2022-08-05T20:38:53.194Z,20.37
2022-08-05T20:43:58.555Z,19.93
2022-08-05T20:48:44.822Z,20
2022-08-05T20:53:55.306Z,19.87
2022-08-05T20:58:44.822Z,19.81
2022-08-05T21:03:47.863Z,19.43
2022-08-05T21:08:44.802Z,19.31
2022-08-05T21:13:47.302Z,19.25
2022-08-05T21:18:45.032Z,19.37
2022-08-05T21:23:44.757Z,18.37
2022-08-05T21:28:47.807Z,18
2022-08-05T21:33:47.452Z,17.81
2022-08-05T21:38:44.739Z,17.87
2022-08-05T21:43:44.738Z,18.06
2022-08-05T21:53:44.727Z,18.37
2022-08-05T22:14:07.062Z,18.5
2022-08-05T22:38:48.442Z,18.06
2022-08-05T23:18:44.611Z,18.12
2022-08-05T23:23:44.624Z,17.93
2022-08-05T23:28:44.591Z,17.87
2022-08-05T23:34:05.724Z,17.87
2022-08-05T23:38:44.584Z,17.81
2022-08-05T23:44:05.760Z,17.75
2022-08-05T23:48:44.575Z,18
2022-08-05T23:53:46.285Z,18
2022-08-05T23:58:44.549Z,18
